Time;durP1;ratioP1;P1;durP2;ratioP2;P2;SDS_P1;SDS_P2;PMS_P1;PMS_P2;Temp;Humidity;BMP_temperature;BMP_pressure;BME280_temperature;BME280_humidity;BME280_pressure;Samples;Min_cycle;Max_cycle;Signal;HPM_P1;HPM_P2
2021/11/21 00:00:54;;;;;;;;;;;6.90;66.40;;;;;;4389919;32;20046;-40
2021/11/21 00:03:20;;;;;;;;;;;6.90;66.40;;;;;;4389631;32;20034;-40
2021/11/21 00:05:47;;;;;;;;;;;6.90;66.40;;;;;;4389930;32;19966;-41
2021/11/21 00:08:13;;;;;;;;;;;6.90;66.50;;;;;;4389864;32;20432;-40
2021/11/21 00:10:39;;;;;;;;;;;6.90;66.40;;;;;;4390221;32;19965;-40
2021/11/21 00:13:06;;;;;;;;;;;6.90;66.30;;;;;;4389605;32;19976;-39
2021/11/21 00:15:33;;;;;;;;;;;7.00;66.40;;;;;;4375403;32;20165;-40
2021/11/21 00:18:00;;;;;;;;;;;7.00;66.20;;;;;;4389385;32;19962;-39
2021/11/21 00:20:26;;;;;;;;;;;7.00;66.10;;;;;;4383235;32;19973;-40
2021/11/21 00:22:52;;;;;;;;;;;7.00;66.10;;;;;;4374514;32;19974;-39
2021/11/21 00:25:19;;;;;;;;;;;7.00;66.10;;;;;;4374249;32;19978;-40
2021/11/21 00:27:45;;;;;;;;;;;7.00;65.90;;;;;;4374911;32;20045;-39
2021/11/21 00:30:11;;;;;;;;;;;7.00;65.70;;;;;;4374899;32;19961;-41
2021/11/21 00:32:41;;;;;;;;;;;7.00;65.30;;;;;;4374761;32;19970;-40
2021/11/21 00:35:10;;;;;;;;;;;7.00;65.30;;;;;;4360513;32;19972;-40
2021/11/21 00:37:36;;;;;;;;;;;6.90;65.30;;;;;;4374348;32;19965;-41
2021/11/21 00:40:04;;;;;;;;;;;6.90;64.90;;;;;;4374765;32;20028;-39
2021/11/21 00:42:30;;;;;;;;;;;6.90;64.70;;;;;;4374389;32;20054;-38
2021/11/21 00:44:56;;;;;;;;;;;6.90;64.20;;;;;;4374663;32;20413;-40
2021/11/21 00:47:22;;;;;;;;;;;7.00;64.10;;;;;;4373828;32;19970;-39
2021/11/21 00:49:48;;;;;;;;;;;6.90;63.90;;;;;;4374036;32;19959;-39
2021/11/21 00:52:15;;;;;;;;;;;6.90;63.80;;;;;;4374133;32;20039;-40
2021/11/21 00:54:52;;;;;;;;;;;6.90;63.70;;;;;;4374394;32;19994;-40
2021/11/21 00:57:18;;;;;;;;;;;6.90;63.20;;;;;;4373930;32;20008;-40
2021/11/21 00:59:44;;;;;;;;;;;6.90;62.60;;;;;;4374271;32;19982;-42
2021/11/21 01:02:12;;;;;;;;;;;6.80;62.30;;;;;;4373815;32;19970;-41
2021/11/21 01:04:41;;;;;;;;;;;6.80;61.90;;;;;;4373637;32;20526;-40
2021/11/21 01:07:07;;;;;;;;;;;6.70;61.50;;;;;;4373951;32;19989;-40
2021/11/21 01:09:34;;;;;;;;;;;6.70;61.90;;;;;;4374189;32;19981;-41
2021/11/21 01:12:00;;;;;;;;;;;6.60;62.10;;;;;;4373929;32;19993;-42
2021/11/21 01:14:27;;;;;;;;;;;6.60;62.30;;;;;;4373536;32;19977;-41
2021/11/21 01:16:54;;;;;;;;;;;6.60;62.60;;;;;;4359877;32;19962;-42
2021/11/21 01:19:20;;;;;;;;;;;6.50;62.60;;;;;;4373322;32;20528;-41
2021/11/21 01:21:47;;;;;;;;;;;6.50;62.80;;;;;;4359543;32;20013;-40
2021/11/21 01:24:13;;;;;;;;;;;6.50;62.80;;;;;;4374099;32;20422;-40
2021/11/21 01:26:39;;;;;;;;;;;6.50;62.80;;;;;;4373564;32;20066;-41
2021/11/21 01:29:05;;;;;;;;;;;6.40;62.90;;;;;;4373420;32;20029;-43
2021/11/21 01:31:32;;;;;;;;;;;6.40;62.50;;;;;;4341099;33;20010;-42
2021/11/21 01:33:58;;;;;;;;;;;6.50;62.30;;;;;;4341262;33;20002;-42
2021/11/21 01:36:24;;;;;;;;;;;6.40;61.40;;;;;;4341108;33;19967;-41
2021/11/21 01:38:50;;;;;;;;;;;6.50;61.70;;;;;;4340893;33;19986;-42
2021/11/21 01:41:16;;;;;;;;;;;6.50;61.30;;;;;;4341292;33;19977;-40
2021/11/21 01:43:43;;;;;;;;;;;6.50;60.90;;;;;;4341660;33;19978;-41
2021/11/21 01:46:09;;;;;;;;;;;6.50;60.40;;;;;;4341233;33;19991;-41
2021/11/21 01:48:35;;;;;;;;;;;6.50;60.30;;;;;;4340773;33;19987;-40
2021/11/21 01:51:08;;;;;;;;;;;6.50;60.60;;;;;;4340948;33;20140;-41
2021/11/21 01:53:35;;;;;;;;;;;6.50;60.70;;;;;;4341079;33;20427;-40
2021/11/21 01:56:01;;;;;;;;;;;6.50;60.70;;;;;;4341028;33;19959;-41
2021/11/21 01:58:28;;;;;;;;;;;6.40;60.70;;;;;;4341206;33;20145;-41
2021/11/21 02:00:55;;;;;;;;;;;6.40;60.80;;;;;;4340841;33;20031;-41
2021/11/21 02:03:21;;;;;;;;;;;6.40;60.80;;;;;;4367906;32;20010;-40
2021/11/21 02:05:47;;;;;;;;;;;6.40;60.60;;;;;;4373218;32;20070;-41
2021/11/21 02:08:14;;;;;;;;;;;6.40;60.40;;;;;;4359499;32;20049;-41
2021/11/21 02:10:40;;;;;;;;;;;6.40;60.40;;;;;;4358844;32;19978;-40
2021/11/21 02:13:07;;;;;;;;;;;6.40;60.20;;;;;;4372865;32;19969;-41
2021/11/21 02:15:34;;;;;;;;;;;6.40;60.00;;;;;;4372898;32;19962;-40
2021/11/21 02:18:00;;;;;;;;;;;6.40;59.50;;;;;;4372877;32;20450;-40
2021/11/21 02:20:35;;;;;;;;;;;6.40;59.50;;;;;;4379194;32;20000;-42
2021/11/21 02:23:02;;;;;;;;;;;6.40;59.50;;;;;;4388074;32;19965;-41
2021/11/21 02:25:29;;;;;;;;;;;6.40;59.20;;;;;;4388222;32;19978;-41
2021/11/21 02:27:55;;;;;;;;;;;6.40;59.00;;;;;;4388200;32;19972;-40
2021/11/21 02:30:21;;;;;;;;;;;6.40;58.40;;;;;;4373991;32;19958;-41
2021/11/21 02:32:51;;;;;;;;;;;6.40;57.70;;;;;;4388149;32;19973;-40
2021/11/21 02:35:18;;;;;;;;;;;6.40;57.80;;;;;;4388032;32;19985;-40
2021/11/21 02:37:44;;;;;;;;;;;6.40;57.60;;;;;;4387944;32;19998;-41
2021/11/21 02:40:11;;;;;;;;;;;6.40;57.10;;;;;;4387761;32;20012;-42
2021/11/21 02:42:37;;;;;;;;;;;6.40;56.70;;;;;;4387912;32;19977;-40
2021/11/21 02:45:16;;;;;;;;;;;6.40;56.90;;;;;;4373667;32;20057;-39
2021/11/21 02:47:43;;;;;;;;;;;6.30;56.50;;;;;;4387868;32;19965;-41
2021/11/21 02:50:16;;;;;;;;;;;6.30;56.60;;;;;;4373948;32;19979;-41
2021/11/21 02:52:43;;;;;;;;;;;6.30;56.60;;;;;;4387617;32;19962;-37
2021/11/21 02:55:09;;;;;;;;;;;6.30;56.80;;;;;;4387975;32;20391;-40
2021/11/21 02:57:35;;;;;;;;;;;6.30;56.70;;;;;;4387752;32;19969;-40
2021/11/21 03:00:03;;;;;;;;;;;6.30;56.60;;;;;;4373488;32;19981;-41
2021/11/21 03:02:29;;;;;;;;;;;6.30;56.30;;;;;;4387998;32;19977;-41
2021/11/21 03:04:56;;;;;;;;;;;6.20;56.10;;;;;;4387562;32;20370;-40
2021/11/21 03:07:22;;;;;;;;;;;6.20;56.30;;;;;;4387836;32;19992;-38
2021/11/21 03:09:49;;;;;;;;;;;6.20;56.10;;;;;;4387689;32;20004;-39
2021/11/21 03:12:19;;;;;;;;;;;6.10;56.10;;;;;;4387716;32;20036;-40
2021/11/21 03:14:46;;;;;;;;;;;6.10;55.80;;;;;;4387840;32;20093;-40
2021/11/21 03:17:12;;;;;;;;;;;6.10;55.50;;;;;;4387478;32;20085;-41
2021/11/21 03:19:38;;;;;;;;;;;6.10;55.40;;;;;;4386126;32;19957;-41
2021/11/21 03:22:04;;;;;;;;;;;6.10;55.60;;;;;;4371987;32;19965;-40
2021/11/21 03:24:31;;;;;;;;;;;6.10;55.40;;;;;;4373119;32;20048;-40
2021/11/21 03:26:57;;;;;;;;;;;6.10;55.50;;;;;;4375390;32;19978;-40
2021/11/21 03:29:23;;;;;;;;;;;6.10;55.60;;;;;;4375304;32;19966;-36
2021/11/21 03:31:49;;;;;;;;;;;6.10;55.60;;;;;;4375195;32;19976;-41
2021/11/21 03:34:15;;;;;;;;;;;6.10;55.40;;;;;;4375200;32;20033;-38
2021/11/21 03:36:42;;;;;;;;;;;6.10;55.60;;;;;;4374955;32;20024;-40
2021/11/21 03:39:08;;;;;;;;;;;6.10;55.20;;;;;;4361199;32;20406;-40
2021/11/21 03:41:35;;;;;;;;;;;6.10;55.10;;;;;;4348751;32;20409;-41
2021/11/21 03:44:02;;;;;;;;;;;6.10;55.20;;;;;;4361292;32;19981;-41
2021/11/21 03:46:28;;;;;;;;;;;6.10;55.10;;;;;;4375221;32;20008;-40
2021/11/21 03:48:57;;;;;;;;;;;6.10;55.20;;;;;;4374927;32;19970;-38
2021/11/21 03:51:23;;;;;;;;;;;6.10;55.00;;;;;;4374902;32;20374;-39
2021/11/21 03:53:49;;;;;;;;;;;6.10;55.00;;;;;;4375086;32;19962;-40
2021/11/21 03:56:15;;;;;;;;;;;6.10;54.90;;;;;;4374890;32;20430;-40
2021/11/21 03:58:42;;;;;;;;;;;6.10;54.90;;;;;;4375056;32;19996;-40
2021/11/21 04:01:08;;;;;;;;;;;6.10;54.90;;;;;;4374886;32;19972;-41
2021/11/21 04:03:34;;;;;;;;;;;6.10;55.70;;;;;;4374519;32;19964;-40
2021/11/21 04:06:00;;;;;;;;;;;6.10;54.90;;;;;;4375165;32;19978;-40
2021/11/21 04:08:27;;;;;;;;;;;6.10;55.00;;;;;;4374903;32;19977;-38
2021/11/21 04:10:54;;;;;;;;;;;6.10;55.00;;;;;;4374856;32;20053;-40
2021/11/21 04:13:20;;;;;;;;;;;6.10;54.90;;;;;;4374604;32;20062;-39
2021/11/21 04:15:46;;;;;;;;;;;6.10;55.10;;;;;;4374781;32;20073;-40
2021/11/21 04:18:13;;;;;;;;;;;6.10;54.80;;;;;;4374867;32;20038;-40
2021/11/21 04:20:39;;;;;;;;;;;6.10;55.00;;;;;;4374339;32;19970;-38
2021/11/21 04:23:05;;;;;;;;;;;6.10;54.80;;;;;;4374363;32;20411;-39
2021/11/21 04:25:31;;;;;;;;;;;6.20;54.90;;;;;;4374298;32;19970;-39
2021/11/21 04:27:58;;;;;;;;;;;6.10;54.90;;;;;;4374436;32;19966;-39
2021/11/21 04:30:24;;;;;;;;;;;6.10;55.00;;;;;;4374530;32;19970;-40
2021/11/21 04:32:50;;;;;;;;;;;6.10;54.90;;;;;;4374610;32;20425;-37
2021/11/21 04:35:18;;;;;;;;;;;6.10;55.10;;;;;;4374271;32;20058;-39
2021/11/21 04:37:44;;;;;;;;;;;6.10;55.10;;;;;;4374839;32;19970;-50
2021/11/21 04:40:11;;;;;;;;;;;6.20;54.90;;;;;;4389468;32;19957;-39
2021/11/21 04:42:37;;;;;;;;;;;6.20;54.90;;;;;;4389754;32;20406;-39
2021/11/21 04:45:04;;;;;;;;;;;6.20;54.80;;;;;;4389475;32;20025;-39
2021/11/21 04:47:30;;;;;;;;;;;6.20;54.60;;;;;;4389444;32;19993;-39
2021/11/21 04:49:57;;;;;;;;;;;6.30;54.70;;;;;;4356233;32;19978;-38
2021/11/21 04:52:23;;;;;;;;;;;6.30;54.70;;;;;;4356634;32;19962;-37
2021/11/21 04:54:49;;;;;;;;;;;6.30;54.30;;;;;;4356584;32;20497;-38
2021/11/21 04:57:16;;;;;;;;;;;6.30;54.10;;;;;;4356380;32;19978;-39
2021/11/21 04:59:42;;;;;;;;;;;6.30;54.30;;;;;;4356428;32;20066;-39
2021/11/21 05:02:08;;;;;;;;;;;6.30;54.30;;;;;;4356166;32;20135;-38
2021/11/21 05:04:34;;;;;;;;;;;6.30;54.20;;;;;;4356342;32;19990;-38
2021/11/21 05:07:01;;;;;;;;;;;6.30;54.30;;;;;;4356267;32;19986;-39
2021/11/21 05:09:27;;;;;;;;;;;6.30;54.50;;;;;;4356185;32;20525;-42
2021/11/21 05:11:53;;;;;;;;;;;6.30;54.40;;;;;;4356488;32;20061;-39
2021/11/21 05:14:21;;;;;;;;;;;6.30;54.60;;;;;;4356036;32;20519;-39
2021/11/21 05:16:48;;;;;;;;;;;6.30;54.60;;;;;;4356381;32;19978;-40
2021/11/21 05:19:14;;;;;;;;;;;6.30;54.70;;;;;;4355869;32;20364;-42
2021/11/21 05:21:40;;;;;;;;;;;6.30;54.80;;;;;;4342388;32;19963;-41
2021/11/21 05:24:07;;;;;;;;;;;6.30;54.80;;;;;;4329092;33;19978;-40
2021/11/21 05:26:33;;;;;;;;;;;6.30;54.80;;;;;;4345888;32;19978;-40
2021/11/21 05:28:59;;;;;;;;;;;6.30;55.10;;;;;;4373946;32;20536;-39
2021/11/21 05:31:25;;;;;;;;;;;6.30;55.20;;;;;;4373875;32;19961;-40
2021/11/21 05:33:52;;;;;;;;;;;6.20;55.30;;;;;;4360098;32;19977;-40
2021/11/21 05:36:18;;;;;;;;;;;6.20;55.60;;;;;;4373558;32;19978;-40
2021/11/21 05:38:45;;;;;;;;;;;6.20;55.90;;;;;;4373157;32;19966;-39
2021/11/21 05:41:11;;;;;;;;;;;6.20;55.90;;;;;;4373387;32;20504;-38
2021/11/21 05:43:38;;;;;;;;;;;6.20;56.00;;;;;;4359232;32;19978;-38
2021/11/21 05:46:05;;;;;;;;;;;6.20;56.10;;;;;;4373938;32;19966;-40
2021/11/21 05:48:31;;;;;;;;;;;6.20;56.10;;;;;;4373176;32;20050;-39
2021/11/21 05:50:57;;;;;;;;;;;6.20;56.40;;;;;;4373150;32;19966;-39
2021/11/21 05:53:23;;;;;;;;;;;6.20;56.30;;;;;;4373154;32;20475;-39
2021/11/21 05:55:50;;;;;;;;;;;6.30;56.20;;;;;;4372958;32;20063;-40
2021/11/21 05:58:18;;;;;;;;;;;6.20;56.00;;;;;;4371683;32;19973;-39
2021/11/21 06:00:45;;;;;;;;;;;6.30;55.90;;;;;;4372948;32;20049;-38
2021/11/21 06:03:11;;;;;;;;;;;6.30;55.80;;;;;;4359000;32;19996;-38
2021/11/21 06:05:37;;;;;;;;;;;6.30;55.90;;;;;;4359316;32;20032;-40
2021/11/21 06:08:06;;;;;;;;;;;6.30;55.90;;;;;;4373296;32;19962;-40
2021/11/21 06:10:33;;;;;;;;;;;6.30;55.90;;;;;;4373262;32;19959;-36
2021/11/21 06:13:00;;;;;;;;;;;6.30;55.40;;;;;;4373081;32;20418;-38
2021/11/21 06:15:26;;;;;;;;;;;6.30;55.20;;;;;;4372780;32;20078;-39
2021/11/21 06:17:52;;;;;;;;;;;6.30;54.90;;;;;;4373267;32;19974;-39
2021/11/21 06:20:18;;;;;;;;;;;6.40;54.50;;;;;;4372894;32;20371;-39
2021/11/21 06:22:45;;;;;;;;;;;6.40;53.80;;;;;;4372557;32;19962;-39
2021/11/21 06:25:11;;;;;;;;;;;6.40;53.40;;;;;;4372988;32;20047;-40
2021/11/21 06:27:37;;;;;;;;;;;6.50;53.60;;;;;;4372832;32;19973;-39
2021/11/21 06:30:05;;;;;;;;;;;6.50;53.10;;;;;;4372880;32;19966;-37
2021/11/21 06:32:31;;;;;;;;;;;6.50;52.80;;;;;;4373019;32;19988;-37
2021/11/21 06:34:57;;;;;;;;;;;6.50;52.80;;;;;;4372879;32;20433;-39
2021/11/21 06:37:23;;;;;;;;;;;6.50;53.00;;;;;;4372733;32;20358;-38
2021/11/21 06:39:50;;;;;;;;;;;6.50;53.00;;;;;;4386118;32;19983;-39
2021/11/21 06:42:16;;;;;;;;;;;6.50;53.00;;;;;;4354694;32;19993;-39
2021/11/21 06:44:42;;;;;;;;;;;6.50;53.00;;;;;;4342622;32;20534;-39
2021/11/21 06:47:08;;;;;;;;;;;6.50;52.90;;;;;;4355370;32;20400;-38
2021/11/21 06:49:35;;;;;;;;;;;6.50;52.70;;;;;;4342607;32;20454;-38
2021/11/21 06:52:02;;;;;;;;;;;6.60;52.70;;;;;;4355617;32;20379;-39
2021/11/21 06:54:28;;;;;;;;;;;6.60;52.50;;;;;;4354816;32;19978;-40
2021/11/21 06:56:54;;;;;;;;;;;6.60;52.30;;;;;;4354983;32;20560;-39
2021/11/21 06:59:20;;;;;;;;;;;6.60;51.80;;;;;;4343515;32;20537;-38
2021/11/21 07:01:47;;;;;;;;;;;6.70;51.90;;;;;;4345498;32;20375;-39
2021/11/21 07:04:13;;;;;;;;;;;6.70;51.80;;;;;;4358242;32;19974;-39
2021/11/21 07:06:41;;;;;;;;;;;6.70;51.40;;;;;;4357687;32;20057;-38
2021/11/21 07:09:09;;;;;;;;;;;6.80;51.00;;;;;;4358136;32;19977;-38
2021/11/21 07:11:35;;;;;;;;;;;6.80;50.80;;;;;;4357916;32;20079;-37
2021/11/21 07:14:02;;;;;;;;;;;6.80;51.00;;;;;;4358897;32;19984;-39
2021/11/21 07:16:28;;;;;;;;;;;6.80;51.00;;;;;;4357646;32;20005;-39
2021/11/21 07:18:55;;;;;;;;;;;6.80;50.80;;;;;;4350585;32;19966;-39
2021/11/21 07:21:21;;;;;;;;;;;6.80;50.70;;;;;;4378397;32;20028;-39
2021/11/21 07:23:47;;;;;;;;;;;6.70;50.80;;;;;;4375431;32;20081;-41
2021/11/21 07:26:13;;;;;;;;;;;6.70;50.80;;;;;;4375620;32;20531;-40
2021/11/21 07:28:40;;;;;;;;;;;6.70;51.10;;;;;;4361247;32;20363;-37
2021/11/21 07:31:07;;;;;;;;;;;6.70;51.40;;;;;;4375412;32;20369;-39
2021/11/21 07:33:33;;;;;;;;;;;6.70;51.00;;;;;;4375550;32;20422;-38
2021/11/21 07:35:59;;;;;;;;;;;6.60;51.00;;;;;;4375174;32;20440;-44
2021/11/21 07:38:25;;;;;;;;;;;6.60;51.10;;;;;;4375257;32;19970;-37
2021/11/21 07:40:52;;;;;;;;;;;6.50;51.30;;;;;;4375126;32;20060;-39
2021/11/21 07:43:20;;;;;;;;;;;6.50;51.60;;;;;;4375675;32;20054;-39
2021/11/21 07:45:46;;;;;;;;;;;6.50;51.40;;;;;;4375088;32;19978;-39
2021/11/21 07:48:12;;;;;;;;;;;6.50;50.80;;;;;;4375191;32;19970;-38
2021/11/21 07:50:38;;;;;;;;;;;6.50;50.80;;;;;;4360836;32;20437;-37
2021/11/21 07:53:04;;;;;;;;;;;6.50;50.40;;;;;;4374804;32;20109;-38
2021/11/21 07:55:31;;;;;;;;;;;6.50;50.10;;;;;;4375144;32;19970;-39
2021/11/21 07:58:00;;;;;;;;;;;6.50;49.90;;;;;;4360936;32;20435;-37
2021/11/21 08:00:26;;;;;;;;;;;6.50;49.70;;;;;;4374664;32;19954;-39
2021/11/21 08:02:52;;;;;;;;;;;6.50;49.60;;;;;;4374517;32;19981;-38
2021/11/21 08:05:19;;;;;;;;;;;6.60;49.10;;;;;;4374614;32;19978;-38
2021/11/21 08:07:45;;;;;;;;;;;6.60;48.30;;;;;;4374824;32;19985;-38
2021/11/21 08:10:11;;;;;;;;;;;6.60;47.50;;;;;;4374337;32;19997;-38
2021/11/21 08:12:38;;;;;;;;;;;6.60;47.80;;;;;;4360966;32;19993;-40
2021/11/21 08:15:05;;;;;;;;;;;6.60;47.40;;;;;;4360832;32;20024;-38
2021/11/21 08:17:31;;;;;;;;;;;6.60;46.50;;;;;;4372553;32;20400;-38
2021/11/21 08:19:57;;;;;;;;;;;6.60;46.10;;;;;;4374062;32;20017;-39
2021/11/21 08:22:23;;;;;;;;;;;6.60;45.80;;;;;;4356445;32;19973;-38
2021/11/21 08:24:51;;;;;;;;;;;6.60;45.70;;;;;;4344622;32;20001;-39
2021/11/21 08:27:17;;;;;;;;;;;6.60;45.60;;;;;;4356848;32;19990;-37
2021/11/21 08:29:43;;;;;;;;;;;6.60;45.80;;;;;;4356763;32;19977;-38
2021/11/21 08:32:10;;;;;;;;;;;6.60;45.10;;;;;;4357242;32;19967;-36
2021/11/21 08:34:36;;;;;;;;;;;6.70;44.60;;;;;;4356833;32;19979;-39
2021/11/21 08:37:02;;;;;;;;;;;6.60;44.00;;;;;;4356684;32;19969;-41
2021/11/21 08:39:29;;;;;;;;;;;6.60;43.40;;;;;;4344016;32;20021;-40
2021/11/21 08:41:55;;;;;;;;;;;6.60;43.20;;;;;;4356699;32;19967;-40
2021/11/21 08:44:22;;;;;;;;;;;6.60;43.60;;;;;;4356588;32;20538;-39
2021/11/21 08:46:48;;;;;;;;;;;6.70;43.70;;;;;;4356375;32;19982;-39
2021/11/21 08:49:14;;;;;;;;;;;6.70;43.90;;;;;;4357112;32;19970;-39
2021/11/21 08:51:43;;;;;;;;;;;6.70;43.90;;;;;;4356263;32;20081;-38
2021/11/21 08:54:10;;;;;;;;;;;6.70;43.20;;;;;;4367103;32;20448;-37
2021/11/21 08:56:36;;;;;;;;;;;6.70;43.70;;;;;;4373601;32;20057;-38
2021/11/21 08:59:03;;;;;;;;;;;6.80;43.60;;;;;;4373986;32;20002;-39
2021/11/21 09:01:29;;;;;;;;;;;6.80;43.20;;;;;;4373819;32;20378;-39
2021/11/21 09:03:55;;;;;;;;;;;6.80;43.40;;;;;;4373688;32;19977;-39
2021/11/21 09:06:22;;;;;;;;;;;6.70;43.70;;;;;;4371921;32;19962;-39
2021/11/21 09:08:48;;;;;;;;;;;6.80;43.60;;;;;;4343514;32;19985;-38
2021/11/21 09:11:14;;;;;;;;;;;6.70;43.90;;;;;;4356407;32;20126;-39
2021/11/21 09:13:40;;;;;;;;;;;6.70;44.40;;;;;;4356370;32;20042;-39
2021/11/21 09:16:08;;;;;;;;;;;6.80;44.30;;;;;;4356787;32;20057;-39
2021/11/21 09:18:36;;;;;;;;;;;6.80;44.10;;;;;;4344094;32;19989;-37
2021/11/21 09:21:02;;;;;;;;;;;6.70;44.20;;;;;;4345749;32;20081;-39
2021/11/21 09:23:28;;;;;;;;;;;6.70;44.10;;;;;;4341562;33;19998;-40
2021/11/21 09:25:54;;;;;;;;;;;6.70;43.90;;;;;;4341089;33;19978;-39
2021/11/21 09:28:22;;;;;;;;;;;6.80;44.30;;;;;;4341044;33;20015;-39
2021/11/21 09:30:48;;;;;;;;;;;6.80;44.20;;;;;;4341121;33;19978;-38
2021/11/21 09:33:14;;;;;;;;;;;6.90;44.30;;;;;;4340812;33;20389;-38
2021/11/21 09:35:40;;;;;;;;;;;6.90;44.70;;;;;;4341101;33;20437;-39
2021/11/21 09:38:07;;;;;;;;;;;6.90;44.70;;;;;;4344167;32;19981;-37
2021/11/21 09:40:33;;;;;;;;;;;6.90;45.00;;;;;;4357961;32;19986;-38
2021/11/21 09:43:00;;;;;;;;;;;6.90;45.10;;;;;;4358466;32;20030;-36
2021/11/21 09:45:27;;;;;;;;;;;6.90;45.30;;;;;;4358198;32;20070;-40
2021/11/21 09:47:57;;;;;;;;;;;6.90;45.50;;;;;;4358573;32;20426;-41
2021/11/21 09:50:24;;;;;;;;;;;6.90;45.60;;;;;;4358120;32;20038;-37
2021/11/21 09:52:50;;;;;;;;;;;6.90;45.70;;;;;;4358040;32;20381;-39
2021/11/21 09:55:17;;;;;;;;;;;7.00;46.60;;;;;;4357897;32;20401;-38
2021/11/21 09:57:44;;;;;;;;;;;7.00;45.70;;;;;;4358512;32;20059;-39
2021/11/21 10:00:12;;;;;;;;;;;7.00;45.70;;;;;;4358092;32;20047;-39
2021/11/21 10:02:40;;;;;;;;;;;7.10;45.50;;;;;;4358060;32;19966;-40
2021/11/21 10:05:16;;;;;;;;;;;7.10;45.10;;;;;;4358334;32;20004;-40
2021/11/21 10:07:43;;;;;;;;;;;7.20;45.20;;;;;;4344553;32;19981;-40
2021/11/21 10:10:14;;;;;;;;;;;7.30;45.30;;;;;;4358144;32;19993;-39
2021/11/21 10:12:41;;;;;;;;;;;7.30;45.10;;;;;;4357765;32;19958;-39
2021/11/21 10:15:12;;;;;;;;;;;7.30;45.30;;;;;;4357537;32;20512;-40
2021/11/21 10:17:40;;;;;;;;;;;7.30;44.90;;;;;;4344326;32;19962;-38
2021/11/21 10:20:22;;;;;;;;;;;7.30;44.90;;;;;;4361998;32;20186;-38
2021/11/21 10:22:52;;;;;;;;;;;7.30;44.80;;;;;;4372475;32;19970;-39
2021/11/21 10:25:34;;;;;;;;;;;7.30;45.10;;;;;;4357872;32;20583;-38
2021/11/21 10:28:04;;;;;;;;;;;7.30;44.90;;;;;;4372466;32;19984;-39
2021/11/21 10:30:30;;;;;;;;;;;7.30;45.40;;;;;;4358624;32;19986;-38
2021/11/21 10:33:01;;;;;;;;;;;7.20;45.30;;;;;;4358361;32;20460;-39
2021/11/21 10:35:28;;;;;;;;;;;7.20;44.90;;;;;;4358471;32;20051;-41
2021/11/21 10:37:56;;;;;;;;;;;7.20;44.30;;;;;;4373773;32;19986;-35
2021/11/21 10:40:23;;;;;;;;;;;7.10;44.30;;;;;;4388093;32;19997;-38
2021/11/21 10:42:51;;;;;;;;;;;7.10;44.10;;;;;;4387522;32;19968;-38
2021/11/21 10:45:28;;;;;;;;;;;7.10;43.90;;;;;;4387728;32;20135;-37
2021/11/21 10:47:56;;;;;;;;;;;7.00;44.00;;;;;;4387480;32;19990;-37
2021/11/21 10:50:32;;;;;;;;;;;7.00;44.40;;;;;;4388077;32;19950;-37
2021/11/21 10:53:03;;;;;;;;;;;7.00;45.00;;;;;;4387670;32;19981;-39
2021/11/21 10:55:29;;;;;;;;;;;7.00;45.10;;;;;;4387062;32;20047;-35
2021/11/21 10:57:55;;;;;;;;;;;7.00;45.10;;;;;;4355128;32;19974;-47
2021/11/21 11:00:28;;;;;;;;;;;7.00;45.30;;;;;;4354763;32;20442;-38
2021/11/21 11:02:54;;;;;;;;;;;7.00;45.60;;;;;;4355187;32;19970;-38
2021/11/21 11:05:21;;;;;;;;;;;7.00;45.30;;;;;;4355284;32;19988;-37
2021/11/21 11:07:47;;;;;;;;;;;7.00;45.40;;;;;;4355017;32;19997;-39
2021/11/21 11:10:24;;;;;;;;;;;7.00;45.50;;;;;;4355160;32;20146;-39
2021/11/21 11:13:02;;;;;;;;;;;7.00;45.40;;;;;;4354908;32;19963;-38
2021/11/21 11:15:29;;;;;;;;;;;6.90;45.40;;;;;;4354949;32;20423;-38
2021/11/21 11:17:55;;;;;;;;;;;6.90;45.90;;;;;;4355050;32;20395;-38
2021/11/21 11:20:21;;;;;;;;;;;6.90;46.90;;;;;;4336937;33;19959;-38
2021/11/21 11:22:48;;;;;;;;;;;6.90;48.00;;;;;;4340317;33;20046;-36
2021/11/21 11:25:22;;;;;;;;;;;6.80;48.50;;;;;;4340106;33;20419;-39
2021/11/21 11:28:13;;;;;;;;;;;6.80;48.90;;;;;;4341132;32;19982;-39
2021/11/21 11:30:40;;;;;;;;;;;6.80;49.40;;;;;;4371975;32;19986;-37
2021/11/21 11:33:17;;;;;;;;;;;6.80;49.90;;;;;;4372235;32;20012;-36
2021/11/21 11:35:47;;;;;;;;;;;6.70;50.00;;;;;;4372091;32;20045;-39
2021/11/21 11:38:24;;;;;;;;;;;6.70;50.20;;;;;;4371560;32;20003;-38
2021/11/21 11:40:57;;;;;;;;;;;6.70;50.40;;;;;;4372359;32;20059;-36
2021/11/21 11:43:34;;;;;;;;;;;6.70;50.60;;;;;;4372141;32;20472;-38
2021/11/21 11:46:02;;;;;;;;;;;6.70;51.40;;;;;;4371101;32;19962;-39
2021/11/21 11:48:31;;;;;;;;;;;6.70;50.80;;;;;;4375049;32;20078;-37
2021/11/21 11:50:58;;;;;;;;;;;6.70;50.70;;;;;;4374997;32;20046;-38
2021/11/21 11:53:42;;;;;;;;;;;6.70;50.50;;;;;;4374910;32;19966;-37
2021/11/21 11:56:30;;;;;;;;;;;6.70;50.50;;;;;;4375069;32;19963;-37
2021/11/21 11:59:04;;;;;;;;;;;6.70;50.60;;;;;;4374432;32;20039;-37
2021/11/21 12:01:40;;;;;;;;;;;6.70;50.90;;;;;;4374421;32;20057;-37
2021/11/21 12:04:07;;;;;;;;;;;6.70;50.90;;;;;;4374565;32;19968;-37
2021/11/21 12:06:41;;;;;;;;;;;6.80;50.80;;;;;;4386648;32;20057;-38
2021/11/21 12:09:16;;;;;;;;;;;6.80;50.40;;;;;;4386956;32;19973;-38
2021/11/21 12:12:07;;;;;;;;;;;6.80;50.30;;;;;;4387571;32;20077;-38
2021/11/21 12:14:39;;;;;;;;;;;6.80;50.30;;;;;;4387144;32;20085;-38
2021/11/21 12:17:06;;;;;;;;;;;6.80;50.60;;;;;;4386893;32;19966;-38
2021/11/21 12:19:54;;;;;;;;;;;6.70;50.80;;;;;;4386886;32;19962;-38
2021/11/21 12:22:32;;;;;;;;;;;6.80;50.90;;;;;;4387259;32;19969;-36
2021/11/21 12:25:04;;;;;;;;;;;6.80;50.90;;;;;;4386685;32;20061;-38
2021/11/21 12:27:32;;;;;;;;;;;6.80;51.00;;;;;;4356473;32;20540;-38
2021/11/21 12:30:09;;;;;;;;;;;6.80;50.80;;;;;;4357267;32;20091;-38
2021/11/21 12:32:46;;;;;;;;;;;6.80;50.50;;;;;;4356594;32;20035;-38
2021/11/21 12:35:29;;;;;;;;;;;6.80;50.40;;;;;;4356290;32;20395;-39
2021/11/21 12:37:57;;;;;;;;;;;6.80;50.60;;;;;;4356114;32;20032;-38
2021/11/21 12:40:42;;;;;;;;;;;6.80;50.30;;;;;;4357062;32;20003;-38
2021/11/21 12:43:10;;;;;;;;;;;6.90;50.00;;;;;;4356673;32;19971;-38
2021/11/21 12:45:38;;;;;;;;;;;6.90;49.90;;;;;;4356521;32;19963;-37
2021/11/21 12:48:05;;;;;;;;;;;6.80;50.00;;;;;;4344447;32;20459;-38
2021/11/21 12:50:34;;;;;;;;;;;6.80;50.20;;;;;;4356087;32;20022;-35
2021/11/21 12:53:09;;;;;;;;;;;6.80;50.50;;;;;;4356471;32;19975;-38
2021/11/21 12:55:40;;;;;;;;;;;6.80;50.10;;;;;;4356191;32;20018;-38
2021/11/21 12:58:07;;;;;;;;;;;6.70;49.60;;;;;;4355913;32;19982;-38
2021/11/21 13:00:35;;;;;;;;;;;6.70;49.60;;;;;;4355868;32;19994;-38
2021/11/21 13:03:04;;;;;;;;;;;6.80;49.20;;;;;;4355984;32;20063;-37
2021/11/21 13:05:32;;;;;;;;;;;6.80;48.90;;;;;;4379401;32;19980;-38
2021/11/21 13:07:59;;;;;;;;;;;6.80;48.80;;;;;;4388324;32;20040;-37
2021/11/21 13:10:25;;;;;;;;;;;6.80;49.10;;;;;;4388657;32;19961;-37
2021/11/21 13:12:56;;;;;;;;;;;6.80;49.20;;;;;;4389062;32;19985;-38
2021/11/21 13:15:24;;;;;;;;;;;6.90;49.50;;;;;;4389365;32;19977;-38
2021/11/21 13:18:04;;;;;;;;;;;6.90;49.50;;;;;;4388749;32;20398;-38
2021/11/21 13:20:30;;;;;;;;;;;6.90;49.20;;;;;;4381623;32;20025;-38
2021/11/21 13:23:00;;;;;;;;;;;6.80;49.00;;;;;;4373577;32;19977;-36
2021/11/21 13:25:43;;;;;;;;;;;6.80;49.10;;;;;;4373674;32;19968;-36
2021/11/21 13:28:40;;;;;;;;;;;6.80;49.10;;;;;;4372963;32;20378;-37
2021/11/21 13:31:24;;;;;;;;;;;6.80;48.90;;;;;;4366876;32;19973;-39
2021/11/21 13:33:57;;;;;;;;;;;6.80;48.90;;;;;;4373322;32;19966;-38
2021/11/21 13:36:34;;;;;;;;;;;6.80;48.90;;;;;;4373098;32;20487;-38
2021/11/21 13:39:00;;;;;;;;;;;6.80;48.90;;;;;;4373214;32;20406;-38
2021/11/21 13:41:26;;;;;;;;;;;6.80;48.70;;;;;;4373612;32;20379;-39
2021/11/21 13:43:53;;;;;;;;;;;6.80;48.50;;;;;;4370614;32;20554;-39
2021/11/21 13:46:39;;;;;;;;;;;6.80;48.30;;;;;;4370587;32;20382;-39
2021/11/21 13:49:28;;;;;;;;;;;6.80;48.50;;;;;;4370903;32;20071;-39
2021/11/21 13:52:06;;;;;;;;;;;6.80;48.30;;;;;;4370677;32;19981;-39
2021/11/21 13:54:34;;;;;;;;;;;6.80;48.50;;;;;;4370850;32;19970;-41
2021/11/21 13:57:03;;;;;;;;;;;6.80;48.50;;;;;;4358500;32;19970;-39
2021/11/21 13:59:42;;;;;;;;;;;6.80;48.50;;;;;;4370212;32;20413;-37
2021/11/21 14:02:08;;;;;;;;;;;6.80;48.40;;;;;;4370143;32;19981;-36
2021/11/21 14:04:35;;;;;;;;;;;6.80;48.50;;;;;;4370407;32;19986;-39
2021/11/21 14:07:12;;;;;;;;;;;6.80;48.30;;;;;;4370427;32;19977;-38
2021/11/21 14:10:13;;;;;;;;;;;6.70;48.30;;;;;;4369741;32;19966;-38
2021/11/21 14:12:40;;;;;;;;;;;6.60;48.40;;;;;;4311122;33;20416;-41
2021/11/21 14:15:16;;;;;;;;;;;6.60;48.70;;;;;;4298822;33;19987;-39
2021/11/21 14:17:44;;;;;;;;;;;6.50;49.00;;;;;;4310658;33;19991;-38
2021/11/21 14:20:28;;;;;;;;;;;6.50;49.10;;;;;;4310610;33;19979;-38
2021/11/21 14:23:05;;;;;;;;;;;6.40;49.20;;;;;;4310816;33;19983;-37
2021/11/21 14:25:33;;;;;;;;;;;6.40;49.10;;;;;;4311131;33;20068;-37
2021/11/21 14:28:07;;;;;;;;;;;6.40;49.00;;;;;;4310982;33;20019;-38
2021/11/21 14:30:44;;;;;;;;;;;6.40;49.30;;;;;;4311202;33;19987;-37
2021/11/21 14:33:20;;;;;;;;;;;6.40;49.10;;;;;;4311292;33;19988;-50
2021/11/21 14:35:47;;;;;;;;;;;6.40;49.10;;;;;;4311266;33;19971;-39
2021/11/21 14:38:14;;;;;;;;;;;6.40;49.30;;;;;;4311117;33;19987;-39